Nearby METAR Reports

 

KNFE - Fentress Naval, Virginia, USA
Distance from station: ENE 5mi, 7km
Updated: Tue, 22-Jun-2021 12:56pm EDT
Overcast
Overcast
 Wind from SW
Wind: SW 9 mph , 15 km/h, Gust: 22 mph , 35 km/h
Temperature: 82°F , 28°C
Heat Index: 86°F , 30°C
Dew Point: 72°F , 22°C
Humidity: 70%
Barometer: 29.74 inHg , 1007.1 hPa
Clouds: Overcast
Visibility: 10 miles , 16 km
Cloud details: Partly cloudy 2700 ft
Partly cloudy 3800 ft
Overcast 4900 ft
2021/06/22 16:56 KNFE 221656Z AUTO 22008G19KT 190V250 10SM SCT027 SCT038 OVC049 28/22 A2974 RMK AO2 SLP074 T02780217
KCPK - Chesapeake, Virginia, USA
Distance from station: W 6mi, 9km
Updated: Tue, 22-Jun-2021 1:15pm EDT
Rain, Overcast
Rain, Overcast
 Wind from SSW
Wind: SSW 14 mph , 22 km/h, Gust: 22 mph , 35 km/h
Temperature: 82°F , 28°C
Heat Index: 86°F , 30°C
Dew Point: 72°F , 22°C
Humidity: 70%
Barometer: 29.75 inHg , 1007.5 hPa
Summary: Rain
Clouds: Overcast
Visibility: 10 miles , 16 km
Cloud details: Mostly cloudy 2600 ft
Mostly cloudy 3500 ft
Overcast 5500 ft
2021/06/22 17:15 KCPK 221715Z AUTO 21012G19KT 190V250 10SM RA BKN026 BKN035 OVC055 28/22 A2975 RMK AO2 T02750217
 
KNTU - Oceana Nas/Souce, Virginia, USA
Distance from station: NE 14mi, 23km
Updated: Tue, 22-Jun-2021 12:56pm EDT
Mostly cloudy
Mostly cloudy
 Wind from SW
Wind: SW 18 mph , 30 km/h, Gust: 23 mph , 37 km/h
Temperature: 88°F , 31°C
Heat Index: 95°F , 35°C
Dew Point: 72°F , 22°C
Humidity: 59%
Barometer: 29.73 inHg , 1006.8 hPa
Clouds: Mostly cloudy
Visibility: 10 miles , 16 km
Cloud details: Partly cloudy 2700 ft
Mostly cloudy 3300 ft
Mostly cloudy 25000 ft
2021/06/22 16:56 KNTU 221656Z 23016G20KT 10SM SCT027 BKN033 BKN250 31/22 A2973 RMK AO2 SLP068 T2 SET T03060217
KORF - Norfolk, Virginia, USA
Distance from station: N 15mi, 24km
Updated: Tue, 22-Jun-2021 1:20pm EDT
Mostly cloudy
Mostly cloudy
 Wind from WSW
Wind: WSW 8 mph , 13 km/h, Gust: 23 mph , 37 km/h
Temperature: 81°F , 27°C
Heat Index: 85°F , 29°C
Dew Point: 72°F , 22°C
Humidity: 74%
Barometer: 29.73 inHg , 1006.8 hPa
Clouds: Mostly cloudy
Visibility: 10 miles , 16 km
Cloud details: Mostly cloudy 2700 ft
Mostly cloudy 4100 ft
2021/06/22 17:20 KORF 221720Z AUTO 25007G20KT 10SM BKN027 BKN041 27/22 A2973 RMK AO2 PK WND 22028/1657 LTG DSNT N T02670217
 
KPVG - Norfolk/Hampton, Virginia, USA
Distance from station: WNW 15mi, 24km
Updated: Tue, 22-Jun-2021 12:56pm EDT
Light rain, Mostly cloudy
Light rain, Mostly cloudy
 Wind from varies
Wind: varies 7 mph , 11 km/h, Gust: 16 mph , 26 km/h
Temperature: 77°F , 25°C
Dew Point: 73°F , 23°C
Humidity: 89%
Barometer: 29.75 inHg , 1007.5 hPa
Summary: Light rain
Clouds: Mostly cloudy
Visibility: 9 miles , 14 km
Cloud details: Mostly cloudy 2600 ft
2021/06/22 16:56 KPVG 221656Z AUTO VRB06G14KT 9SM -RA BKN026 25/23 A2975 RMK AO2 RAB33 SLP075 P0000 T02500233
KNGU - Norfolk Nas/Cham, Virginia, USA
Distance from station: N 16mi, 26km
Updated: Tue, 22-Jun-2021 1:03pm EDT
Rain, Overcast
Rain, Overcast
 Wind from SSW
Wind: SSW 20 mph , 31 km/h, Gust: 26 mph , 43 km/h
Temperature: 79°F , 26°C
Dew Point: 48°F , 9°C
Humidity: 34%
Barometer: 29.75 inHg , 1007.5 hPa
Summary: Rain
Clouds: Overcast
Visibility: 1 1/2 miles , 2.4 km
Cloud details: Mostly cloudy 2500 ft
Overcast 6000 ft
2021/06/22 17:03 KNGU 221703Z 21017G23KT 1 1/2SM RA BKN025CB OVC060 26/09 A2975 RMK AO2 CB SW MOV NE T1 SET P0005 T02560094 $
 
KSFQ - Suffolk, Virginia, USA
Distance from station: W 21mi, 34km
Updated: Tue, 22-Jun-2021 1:15pm EDT
Overcast
Overcast
 Wind from SW
Wind: SW 15 mph , 24 km/h, Gust: 23 mph , 37 km/h
Temperature: 81°F , 27°C
Heat Index: 86°F , 30°C
Dew Point: 73°F , 23°C
Humidity: 79%
Barometer: 29.76 inHg , 1007.8 hPa
Clouds: Overcast
Visibility: 10 miles , 16 km
Cloud details: Partly cloudy 2200 ft
Mostly cloudy 2900 ft
Overcast 4200 ft
2021/06/22 17:15 KSFQ 221715Z AUTO 22013G20KT 10SM SCT022 BKN029 OVC042 27/23 A2976 RMK AO2 T02730226
KONX - Currituck, North Carolina, USA
Distance from station: SSE 22mi, 36km
Updated: Tue, 22-Jun-2021 9:55am EDT
NOT Current
Overcast
Overcast
 Wind from SW
Wind: SW 16 mph , 26 km/h
Temperature: 79°F , 26°C
Dew Point: 75°F , 24°C
Humidity: 89%
Barometer: 29.79 inHg , 1008.8 hPa
Clouds: Overcast
Visibility: 10 miles , 16 km
Cloud details: Mostly cloudy 2300 ft
Overcast 2900 ft
2021/06/22 13:55 KONX 221355Z AUTO 23014KT 10SM BKN023 OVC029 26/24 A2979 RMK AO2 T02640242
 
KLFI - Langley Afb/Hamp, Virginia, USA
Distance from station: NNW 28mi, 45km
Updated: Tue, 22-Jun-2021 12:56pm EDT
Mostly cloudy
Mostly cloudy
 Wind from SW
Wind: SW 21 mph , 33 km/h, Gust: 28 mph , 44 km/h
Temperature: 86°F , 30°C
Heat Index: 95°F , 35°C
Dew Point: 75°F , 24°C
Humidity: 70%
Barometer: 29.72 inHg , 1006.4 hPa
Clouds: Mostly cloudy
Visibility: 10 miles , 16 km
Cloud details: Mostly cloudy 2000 ft
Mostly cloudy 6000 ft
Mostly cloudy 15000 ft
2021/06/22 16:56 KLFI 221656Z 22018G24KT 10SM BKN020 BKN060 BKN150 30/24 A2972 RMK AO2A SLP070 T02960240 $
KECG - Elizabeth City, North Carolina, USA
Distance from station: S 29mi, 46km
Updated: Tue, 22-Jun-2021 12:54pm EDT
Mostly cloudy
Mostly cloudy
 Wind from SSW
Wind: SSW 17 mph , 28 km/h, Gust: 26 mph , 43 km/h
Temperature: 81°F , 27°C
Heat Index: 86°F , 30°C
Dew Point: 73°F , 23°C
Humidity: 79%
Barometer: 29.79 inHg , 1008.8 hPa
Clouds: Mostly cloudy
Visibility: 10 miles , 16 km
Cloud details: Mostly cloudy 2400 ft
Mostly cloudy 9500 ft
2021/06/22 16:54 KECG 221654Z 20015G23KT 10SM BKN024 BKN095 27/23 A2979 RMK AO2 RAB06E15 SLP086 P0000 T02670228
 
KPHF - Newport News, Virginia, USA
Distance from station: NNW 35mi, 56km
Updated: Tue, 22-Jun-2021 1:17pm EDT
Mostly cloudy
Mostly cloudy
 Wind from WNW
Wind: WNW 12 mph , 19 km/h, Gust: 21 mph , 33 km/h
Temperature: 77°F , 25°C
Dew Point: 75°F , 24°C
Humidity: 94%
Barometer: 29.73 inHg , 1006.8 hPa
Clouds: Mostly cloudy
Visibility: 10 miles , 16 km
Cloud details: Mostly cloudy 2900 ft
Mostly cloudy 3800 ft
2021/06/22 17:17 KPHF 221717Z 30010G18KT 10SM BKN029 BKN038 25/24 A2973 RMK AO2 WSHFT 1657 LTG DSNT NW-NE RAB05E16 P0000 T02500239
KFAF - Ft Eustis/Felker, Virginia, USA
Distance from station: NW 37mi, 60km
Updated: Tue, 22-Jun-2021 1:06pm EDT
Heavy rain, Mist, Mostly cloudy
Heavy rain, Mist, Mostly cloudy
 Wind from W
Wind: W 7 mph , 11 km/h
Temperature: 75°F , 24°C
Dew Point: 73°F , 23°C
Humidity: 94%
Barometer: 29.71 inHg , 1006.1 hPa
Summary: Heavy rain, Mist
Clouds: Mostly cloudy
Visibility: 1 1/8 miles , 1.8 km
Cloud details: Few Clouds 400 ft
Mostly cloudy 1700 ft
Mostly cloudy 2900 ft
Mostly cloudy 6000 ft
2021/06/22 17:06 KFAF 221706Z AUTO 26006KT 1 1/8SM +RA BR FEW004 BKN017 BKN029 BKN060 24/23 A2971 RMK AO2 VIS 5/8V7 CIG 017V030 SLP064 $
 
KFKN - Franklin/J B Ros, Virginia, USA
Distance from station: W 38mi, 61km
Updated: Tue, 22-Jun-2021 1:15pm EDT
Mostly cloudy
Mostly cloudy
 Wind from WSW
Wind: WSW 9 mph , 15 km/h, Gust: 16 mph , 26 km/h
Temperature: 79°F , 26°C
Dew Point: 77°F , 25°C
Humidity: 94%
Barometer: 29.77 inHg , 1008.1 hPa
Clouds: Mostly cloudy
Visibility: 10 miles , 16 km
Cloud details: Mostly cloudy 2500 ft
Mostly cloudy 3000 ft
Mostly cloudy 7500 ft
2021/06/22 17:15 KFKN 221715Z AUTO 24008G14KT 10SM BKN025 BKN030 BKN075 26/25 A2977 RMK AO2 LTG DSNT W T02600245
KJGG - Williamsburg, Virginia, USA
Distance from station: NW 47mi, 76km
Updated: Tue, 22-Jun-2021 1:15pm EDT
Partly cloudy
Partly cloudy
 Wind from WNW
Wind: WNW 12 mph , 19 km/h
Temperature: 79°F , 26°C
Dew Point: 75°F , 24°C
Humidity: 89%
Barometer: 29.75 inHg , 1007.5 hPa
Clouds: Partly cloudy
Visibility: 10 miles , 16 km
Cloud details: Partly cloudy 4100 ft
2021/06/22 17:15 KJGG 221715Z AUTO 30010KT 10SM SCT041 26/24 A2975 RMK AO1
 
KAKQ - Norfolk/Wakefld, Virginia, USA
Distance from station: WNW 48mi, 78km
Updated: Tue, 22-Jun-2021 12:54pm EDT
Partly cloudy
Partly cloudy
 Wind from SW
Wind: SW 9 mph , 15 km/h, Gust: 23 mph , 37 km/h
Temperature: 84°F , 29°C
Heat Index: 90°F , 32°C
Dew Point: 73°F , 23°C
Humidity: 70%
Barometer: 29.74 inHg , 1007.1 hPa
Clouds: Partly cloudy
Visibility: 10 miles , 16 km
Cloud details: Few Clouds 3300 ft
Partly cloudy 3900 ft
2021/06/22 16:54 KAKQ 221654Z AUTO 22008G20KT 10SM FEW033 SCT039 29/23 A2974 RMK AO2 LTG DSNT N RAE25 SLP068 P0001 T02890233
KEDE - Edenton, North Carolina, USA
Distance from station: SSW 50mi, 80km
Updated: Tue, 22-Jun-2021 1:15pm EDT
Overcast
Overcast
 Wind from WSW
Wind: WSW 15 mph , 24 km/h, Gust: 23 mph , 37 km/h
Temperature: 79°F , 26°C
Dew Point: 77°F , 25°C
Humidity: 94%
Barometer: 29.81 inHg , 1009.5 hPa
Clouds: Overcast
Visibility: 10 miles , 16 km
Cloud details: Partly cloudy 800 ft
Mostly cloudy 1500 ft
Overcast 2400 ft
2021/06/22 17:15 KEDE 221715Z AUTO 24013G20KT 10SM SCT008 BKN015 OVC024 26/25 A2981 RMK AO2 T02590250